Time;durP1;ratioP1;P1;durP2;ratioP2;P2;SDS_P1;SDS_P2;PMS_P1;PMS_P2;Temp;Humidity;BMP_temperature;BMP_pressure;BME280_temperature;BME280_humidity;BME280_pressure;Samples;Min_cycle;Max_cycle;Signal;HPM_P1;HPM_P2
2022/10/05 00:00:18;;;;;;;1.50;1.50;;;20.50;66.40;;;;;;5095941;27;43478;-74
2022/10/05 00:02:46;;;;;;;1.40;1.40;;;20.50;66.90;;;;;;5092077;27;43445;-75
2022/10/05 00:05:20;;;;;;;1.47;1.47;;;20.40;66.70;;;;;;5094393;27;44095;-74
2022/10/05 00:07:48;;;;;;;1.47;1.47;;;20.40;66.60;;;;;;5067049;28;45579;-74
2022/10/05 00:10:17;;;;;;;1.50;1.50;;;20.40;66.80;;;;;;5091914;27;43896;-74
2022/10/05 00:12:46;;;;;;;1.60;1.60;;;20.40;67.00;;;;;;5074397;27;43414;-74
2022/10/05 00:15:16;;;;;;;1.40;1.40;;;20.40;67.30;;;;;;5093188;27;43416;-74
2022/10/05 00:17:44;;;;;;;1.40;1.40;;;20.40;67.10;;;;;;5089814;27;43863;-74
2022/10/05 00:20:18;;;;;;;1.60;1.60;;;20.40;67.00;;;;;;5087698;27;43435;-74
2022/10/05 00:22:46;;;;;;;1.60;1.60;;;20.30;66.90;;;;;;5099376;27;43421;-74
2022/10/05 00:25:16;;;;;;;1.30;1.30;;;20.30;67.00;;;;;;5088736;27;43486;-76
2022/10/05 00:27:54;;;;;;;1.70;1.70;;;20.30;67.50;;;;;;5100396;27;43943;-74
2022/10/05 00:30:25;;;;;;;1.43;1.43;;;20.40;67.30;;;;;;5073247;27;44568;-72
2022/10/05 00:32:53;;;;;;;1.50;1.50;;;20.50;66.90;;;;;;5083366;27;43918;-73
2022/10/05 00:35:28;;;;;;;1.30;1.30;;;20.60;66.50;;;;;;5080401;27;43526;-71
2022/10/05 00:37:56;;;;;;;1.40;1.40;;;20.70;65.90;;;;;;5083948;27;45817;-75
2022/10/05 00:40:35;;;;;;;1.50;1.50;;;20.80;65.80;;;;;;5085973;27;44863;-74
2022/10/05 00:43:14;;;;;;;1.50;1.50;;;20.70;65.70;;;;;;5084691;28;44512;-73
2022/10/05 00:45:45;;;;;;;1.30;1.30;;;20.60;66.00;;;;;;5096309;27;43394;-74
2022/10/05 00:48:17;;;;;;;1.60;1.60;;;20.60;66.30;;;;;;5090067;27;43691;-75
2022/10/05 00:50:54;;;;;;;1.60;1.60;;;20.50;66.70;;;;;;5102029;27;43494;-73
2022/10/05 00:53:28;;;;;;;1.40;1.40;;;20.50;66.90;;;;;;5082774;27;43428;-74
2022/10/05 00:55:59;;;;;;;1.43;1.43;;;20.50;66.70;;;;;;5083732;27;43494;-74
2022/10/05 00:58:34;;;;;;;1.30;1.30;;;20.40;66.70;;;;;;5095091;27;43752;-75
2022/10/05 01:01:06;;;;;;;1.50;1.50;;;20.40;66.80;;;;;;5105146;27;43400;-75
2022/10/05 01:03:39;;;;;;;1.70;1.70;;;20.40;66.90;;;;;;5077405;28;43355;-75
2022/10/05 01:06:11;;;;;;;1.50;1.50;;;20.40;67.40;;;;;;5090237;27;43411;-76
2022/10/05 01:08:43;;;;;;;1.80;1.80;;;20.40;67.10;;;;;;5095389;27;43845;-74
2022/10/05 01:11:15;;;;;;;1.50;1.50;;;20.50;66.70;;;;;;5083524;27;43396;-74
2022/10/05 01:13:49;;;;;;;1.70;1.70;;;20.60;66.50;;;;;;5098579;27;43429;-75
2022/10/05 01:16:21;;;;;;;1.50;1.50;;;20.60;66.30;;;;;;5083002;27;43483;-74
2022/10/05 01:18:51;;;;;;;1.70;1.70;;;20.50;66.70;;;;;;5077596;27;45297;-74
2022/10/05 01:21:20;;;;;;;1.40;1.40;;;20.50;66.60;;;;;;5090860;27;43418;-74
2022/10/05 01:24:13;;;;;;;1.60;1.60;;;20.50;66.40;;;;;;5093034;27;43416;-75
2022/10/05 01:27:16;;;;;;;1.53;1.53;;;20.50;66.60;;;;;;5088704;27;44107;-74
2022/10/05 01:29:48;;;;;;;1.60;1.60;;;20.40;66.70;;;;;;5078439;27;44074;-72
2022/10/05 01:32:19;;;;;;;1.57;1.57;;;20.40;67.20;;;;;;5074647;28;45142;-75
2022/10/05 01:34:50;;;;;;;1.60;1.60;;;20.40;67.10;;;;;;5101878;27;43435;-75
2022/10/05 01:37:22;;;;;;;1.73;1.73;;;20.40;66.90;;;;;;5084006;27;43593;-75
2022/10/05 01:39:53;;;;;;;1.50;1.50;;;20.40;66.90;;;;;;5080072;27;45374;-75
2022/10/05 01:42:25;;;;;;;1.50;1.50;;;20.30;66.90;;;;;;5099129;27;43383;-75
2022/10/05 01:44:57;;;;;;;1.77;1.77;;;20.30;67.30;;;;;;5083779;27;43949;-73
2022/10/05 01:47:28;;;;;;;1.33;1.33;;;20.30;67.40;;;;;;5098129;27;43413;-73
2022/10/05 01:50:00;;;;;;;1.60;1.60;;;20.30;67.20;;;;;;5099730;27;43603;-75
2022/10/05 01:52:31;;;;;;;1.50;1.50;;;20.30;67.00;;;;;;5087077;27;45047;-73
2022/10/05 01:55:05;;;;;;;1.30;1.30;;;20.30;67.10;;;;;;5092923;27;43396;-74
2022/10/05 01:57:38;;;;;;;1.50;1.50;;;20.30;67.20;;;;;;5102852;27;43391;-74
2022/10/05 02:00:08;;;;;;;1.70;1.70;;;20.30;67.60;;;;;;5082034;27;45534;-75
2022/10/05 02:02:45;;;;;;;1.60;1.60;;;20.40;67.40;;;;;;5084851;28;44998;-73
2022/10/05 02:05:16;;;;;;;1.50;1.50;;;20.50;67.00;;;;;;5098100;27;43405;-73
2022/10/05 02:07:45;;;;;;;1.63;1.63;;;20.60;66.40;;;;;;5080779;27;43626;-73
2022/10/05 02:10:17;;;;;;;1.60;1.60;;;20.70;66.00;;;;;;5064902;28;45553;-75
2022/10/05 02:12:46;;;;;;;1.50;1.50;;;20.70;65.80;;;;;;5074487;27;44557;-73
2022/10/05 02:15:18;;;;;;;1.57;1.57;;;20.70;65.80;;;;;;5070922;27;43454;-73
2022/10/05 02:17:47;;;;;;;1.40;1.40;;;20.60;66.00;;;;;;5081871;27;43466;-74
2022/10/05 02:20:19;;;;;;;1.50;1.50;;;20.60;66.30;;;;;;5063578;27;44027;-74
2022/10/05 02:22:49;;;;;;;1.50;1.50;;;20.50;66.80;;;;;;5087516;27;43994;-75
2022/10/05 02:25:18;;;;;;;1.50;1.50;;;20.50;66.80;;;;;;5086115;27;43988;-73
2022/10/05 02:27:50;;;;;;;1.53;1.53;;;20.50;66.70;;;;;;5081393;27;43466;-75
2022/10/05 02:30:19;;;;;;;1.60;1.60;;;20.40;66.60;;;;;;5099964;27;43791;-73
2022/10/05 02:32:51;;;;;;;1.80;1.80;;;20.40;66.80;;;;;;5075498;27;45109;-74
2022/10/05 02:35:20;;;;;;;1.57;1.57;;;20.30;66.90;;;;;;5077575;28;44105;-73
2022/10/05 02:37:56;;;;;;;1.50;1.50;;;20.40;67.40;;;;;;5073262;28;43468;-74
2022/10/05 02:40:30;;;;;;;1.63;1.63;;;20.40;67.20;;;;;;5082682;28;45862;-73
2022/10/05 02:43:02;;;;;;;1.60;1.60;;;20.40;67.00;;;;;;5078426;27;44775;-74
2022/10/05 02:45:36;;;;;;;1.40;1.40;;;20.30;66.90;;;;;;5075315;27;43509;-74
2022/10/05 02:48:07;;;;;;;1.60;1.60;;;20.30;67.10;;;;;;5072148;27;43416;-74
2022/10/05 02:50:38;;;;;;;1.63;1.63;;;20.30;67.50;;;;;;5074814;27;45497;-73
2022/10/05 02:53:11;;;;;;;1.50;1.50;;;20.30;67.40;;;;;;5092073;27;43388;-74
2022/10/05 02:55:42;;;;;;;1.40;1.40;;;20.40;66.90;;;;;;5082334;27;43407;-74
2022/10/05 02:58:12;;;;;;;1.50;1.50;;;20.60;66.60;;;;;;5079609;27;43942;-73
2022/10/05 03:00:42;;;;;;;1.40;1.40;;;20.70;66.00;;;;;;5095837;27;43958;-74
2022/10/05 03:03:14;;;;;;;1.50;1.50;;;20.80;65.80;;;;;;5090837;27;43504;-73
2022/10/05 03:05:45;;;;;;;1.50;1.50;;;20.70;65.70;;;;;;5095390;27;43422;-74
2022/10/05 03:08:16;;;;;;;1.40;1.40;;;20.60;65.90;;;;;;5081743;27;44225;-73
2022/10/05 03:10:47;;;;;;;1.33;1.33;;;20.50;66.90;;;;;;5083884;27;45462;-73
2022/10/05 03:13:20;;;;;;;1.40;1.40;;;20.50;66.50;;;;;;5085500;27;44762;-74
2022/10/05 03:16:11;;;;;;;1.50;1.50;;;20.40;66.90;;;;;;5094633;27;43367;-75
2022/10/05 03:18:47;;;;;;;1.40;1.40;;;20.40;66.90;;;;;;5058906;27;44134;-74
2022/10/05 03:21:22;;;;;;;1.50;1.50;;;20.40;66.80;;;;;;5067837;27;46089;-75
2022/10/05 03:23:57;;;;;;;1.30;1.30;;;20.40;66.90;;;;;;5087365;27;44329;-76
2022/10/05 03:26:32;;;;;;;1.50;1.50;;;20.30;67.00;;;;;;5080153;27;43455;-74
2022/10/05 03:29:03;;;;;;;1.50;1.50;;;20.30;67.40;;;;;;5096102;27;43546;-74
2022/10/05 03:31:36;;;;;;;1.43;1.43;;;20.30;67.30;;;;;;5083069;28;43927;-74
2022/10/05 03:34:07;;;;;;;1.43;1.43;;;20.40;66.90;;;;;;5071977;27;45490;-74
2022/10/05 03:36:38;;;;;;;1.33;1.33;;;20.50;66.70;;;;;;5095403;27;43342;-74
2022/10/05 03:39:10;;;;;;;1.50;1.50;;;20.50;66.50;;;;;;5078086;27;43416;-76
2022/10/05 03:41:41;;;;;;;1.57;1.57;;;20.50;66.80;;;;;;5075076;27;45955;-73
2022/10/05 03:44:33;;;;;;;1.40;1.40;;;20.50;66.80;;;;;;5074632;27;44479;-75
2022/10/05 03:47:15;;;;;;;1.30;1.30;;;20.50;66.70;;;;;;5080576;27;43608;-75
2022/10/05 03:49:59;;;;;;;1.50;1.50;;;20.40;66.70;;;;;;5075439;27;43503;-74
2022/10/05 03:52:30;;;;;;;1.37;1.37;;;20.40;66.90;;;;;;5074407;27;44014;-74
2022/10/05 03:55:01;;;;;;;1.30;1.30;;;20.40;67.30;;;;;;5084464;27;45365;-72
2022/10/05 03:57:30;;;;;;;1.57;1.57;;;20.40;67.30;;;;;;5099406;27;43911;-75
2022/10/05 04:00:00;;;;;;;1.40;1.40;;;20.40;67.10;;;;;;5071778;27;43625;-74
2022/10/05 04:02:43;;;;;;;1.40;1.40;;;20.40;67.10;;;;;;5093808;27;43502;-75
2022/10/05 04:05:14;;;;;;;1.30;1.30;;;20.30;67.00;;;;;;5084563;27;44677;-74
2022/10/05 04:07:45;;;;;;;1.77;1.70;;;20.30;67.10;;;;;;5092330;27;43404;-74
2022/10/05 04:10:17;;;;;;;1.60;1.60;;;20.30;67.50;;;;;;5077835;27;44038;-75
2022/10/05 04:12:48;;;;;;;1.47;1.47;;;20.30;67.40;;;;;;5085009;27;44317;-73
2022/10/05 04:15:21;;;;;;;1.80;1.80;;;20.30;67.20;;;;;;5082674;27;43463;-74
2022/10/05 04:17:56;;;;;;;1.80;1.70;;;20.30;67.10;;;;;;5079513;27;43403;-75
2022/10/05 04:20:25;;;;;;;1.97;1.80;;;20.30;67.20;;;;;;5094417;27;43451;-75
2022/10/05 04:22:57;;;;;;;2.10;2.00;;;20.30;67.50;;;;;;5080246;27;44106;-75
2022/10/05 04:25:28;;;;;;;1.80;1.70;;;20.30;67.60;;;;;;5083921;27;43490;-74
2022/10/05 04:28:00;;;;;;;1.90;1.80;;;20.40;67.30;;;;;;5075479;27;43361;-75
2022/10/05 04:30:28;;;;;;;2.30;2.10;;;20.50;66.70;;;;;;5081491;28;43467;-74
2022/10/05 04:32:59;;;;;;;2.50;2.33;;;20.70;66.30;;;;;;5077596;27;45005;-74
2022/10/05 04:35:38;;;;;;;2.33;2.13;;;20.80;65.90;;;;;;5080595;27;44747;-73
2022/10/05 04:38:13;;;;;;;2.50;2.30;;;20.80;65.80;;;;;;5070709;28;43485;-73
2022/10/05 04:40:47;;;;;;;2.37;2.23;;;20.80;65.70;;;;;;5068707;27;43443;-73
2022/10/05 04:43:18;;;;;;;2.50;2.40;;;20.70;66.00;;;;;;5071259;27;45952;-74
2022/10/05 04:46:12;;;;;;;2.57;2.37;;;20.60;66.20;;;;;;5078361;27;44532;-73
2022/10/05 04:49:09;;;;;;;2.80;2.70;;;20.50;66.70;;;;;;5056676;28;43582;-76
2022/10/05 04:51:39;;;;;;;4.50;2.37;;;20.50;66.70;;;;;;5078619;27;43634;-73
2022/10/05 04:54:14;;;;;;;2.43;2.23;;;20.50;66.70;;;;;;5075527;27;45614;-75
2022/10/05 04:56:43;;;;;;;2.50;2.40;;;20.40;66.70;;;;;;5093058;27;43408;-74
2022/10/05 04:59:35;;;;;;;2.30;2.20;;;20.40;66.90;;;;;;5096468;27;43434;-74
2022/10/05 05:02:05;;;;;;;2.80;2.60;;;20.40;67.40;;;;;;5073704;27;43450;-73
2022/10/05 05:04:48;;;;;;;2.70;2.50;;;20.40;67.20;;;;;;5080105;27;44039;-74
2022/10/05 05:07:27;;;;;;;2.13;2.03;;;20.40;67.10;;;;;;5081569;28;44458;-73
2022/10/05 05:10:18;;;;;;;2.87;2.67;;;20.40;67.10;;;;;;5078250;27;43850;-75
2022/10/05 05:12:51;;;;;;;2.60;2.40;;;20.30;67.10;;;;;;5077753;27;43492;-74
2022/10/05 05:15:26;;;;;;;3.10;2.70;;;20.30;67.60;;;;;;5094265;27;43750;-73
2022/10/05 05:18:09;;;;;;;3.20;2.90;;;20.40;67.40;;;;;;5079896;27;44780;-74
2022/10/05 05:20:45;;;;;;;3.37;2.80;;;20.50;67.00;;;;;;5081703;27;43583;-74
2022/10/05 05:23:18;;;;;;;2.80;2.60;;;20.60;66.40;;;;;;5076522;27;43840;-74
2022/10/05 05:25:48;;;;;;;2.80;2.60;;;20.70;66.00;;;;;;5073897;27;46014;-73
2022/10/05 05:28:19;;;;;;;2.77;2.60;;;20.70;65.90;;;;;;5076469;27;44611;-75
2022/10/05 05:30:50;;;;;;;2.70;2.60;;;20.70;66.00;;;;;;5083642;27;43412;-74
2022/10/05 05:33:20;;;;;;;2.73;2.53;;;20.60;66.30;;;;;;5082169;27;43503;-74
2022/10/05 05:36:19;;;;;;;3.00;2.80;;;20.50;66.50;;;;;;5083724;27;44047;-74
2022/10/05 05:38:58;;;;;;;3.07;2.87;;;20.40;67.00;;;;;;5078967;28;43971;-74
2022/10/05 05:41:29;;;;;;;2.63;2.53;;;20.40;67.00;;;;;;5071481;27;43445;-72
2022/10/05 05:44:03;;;;;;;2.57;2.47;;;20.40;66.80;;;;;;5074017;27;43614;-74
2022/10/05 05:46:35;;;;;;;2.90;2.70;;;20.40;67.00;;;;;;5083441;27;45350;-75
2022/10/05 05:49:27;;;;;;;3.30;3.10;;;20.30;67.00;;;;;;5071633;28;43406;-74
2022/10/05 05:51:58;;;;;;;2.80;2.60;;;20.30;67.50;;;;;;5085375;27;43524;-74
2022/10/05 05:54:30;;;;;;;3.13;2.93;;;20.40;67.40;;;;;;5070892;28;43557;-73
2022/10/05 05:57:03;;;;;;;2.90;2.70;;;20.40;66.80;;;;;;5076519;28;45704;-74
2022/10/05 05:59:43;;;;;;;2.97;2.77;;;20.50;66.70;;;;;;5063403;28;44380;-74
2022/10/05 06:02:13;;;;;;;3.40;2.73;;;20.50;66.50;;;;;;5081366;27;43362;-73
2022/10/05 06:04:43;;;;;;;2.63;2.53;;;20.50;66.90;;;;;;5101478;27;44045;-74
2022/10/05 06:07:16;;;;;;;2.90;2.70;;;20.50;66.80;;;;;;5075445;27;44802;-72
2022/10/05 06:09:46;;;;;;;3.10;2.90;;;20.40;66.60;;;;;;5089192;27;44887;-72
2022/10/05 06:12:28;;;;;;;2.50;2.40;;;20.40;66.60;;;;;;5083756;27;43961;-74
2022/10/05 06:14:57;;;;;;;2.43;2.33;;;20.40;66.80;;;;;;5081146;27;43526;-74
2022/10/05 06:17:28;;;;;;;3.00;2.83;;;20.40;67.30;;;;;;5085175;27;45271;-74
2022/10/05 06:19:57;;;;;;;2.73;2.60;;;20.40;67.30;;;;;;5081561;28;44801;-73
2022/10/05 06:22:36;;;;;;;2.87;2.67;;;20.40;67.10;;;;;;5068492;27;43402;-74
2022/10/05 06:25:09;;;;;;;3.10;2.90;;;20.50;66.90;;;;;;5078587;27;43572;-74
2022/10/05 06:27:37;;;;;;;2.77;2.67;;;20.50;66.60;;;;;;5069289;27;45989;-73
2022/10/05 06:30:07;;;;;;;2.83;2.73;;;20.40;66.70;;;;;;5069293;27;43505;-75
2022/10/05 06:32:47;;;;;;;3.23;2.93;;;20.40;67.20;;;;;;5065241;28;43525;-74
2022/10/05 06:35:19;;;;;;;3.10;2.77;;;20.40;67.10;;;;;;5069488;27;43599;-75
2022/10/05 06:38:00;;;;;;;2.67;2.53;;;20.40;66.80;;;;;;5077173;27;43821;-74
2022/10/05 06:40:34;;;;;;;2.57;2.37;;;20.40;66.90;;;;;;5087021;27;44556;-74
2022/10/05 06:43:23;;;;;;;3.00;2.70;;;20.30;67.00;;;;;;5072958;27;43474;-74
2022/10/05 06:46:11;;;;;;;3.03;2.83;;;20.30;67.50;;;;;;5089179;27;43308;-73
2022/10/05 06:49:17;;;;;;;2.63;2.43;;;20.30;67.50;;;;;;5082967;27;43585;-73
2022/10/05 06:51:55;;;;;;;2.50;2.40;;;20.40;67.00;;;;;;5082845;28;43983;-75
2022/10/05 06:54:42;;;;;;;2.80;2.60;;;20.60;66.50;;;;;;5078166;28;43423;-74
2022/10/05 06:57:16;;;;;;;2.47;2.37;;;20.70;66.20;;;;;;5054637;27;43421;-74
2022/10/05 06:59:46;;;;;;;2.77;2.57;;;20.70;66.10;;;;;;5106374;27;43943;-74
2022/10/05 07:02:17;;;;;;;2.43;2.33;;;20.60;66.10;;;;;;5083687;27;44733;-74
2022/10/05 07:04:57;;;;;;;2.73;2.57;;;20.50;66.30;;;;;;5076102;27;43849;-75
2022/10/05 07:07:28;;;;;;;2.83;2.73;;;20.40;66.50;;;;;;5075833;28;43476;-75
2022/10/05 07:10:04;;;;;;;2.93;2.73;;;20.40;67.10;;;;;;5076670;27;44705;-73
2022/10/05 07:12:45;;;;;;;2.63;2.43;;;20.40;67.00;;;;;;5069296;28;44746;-75
2022/10/05 07:15:38;;;;;;;2.83;2.63;;;20.40;67.00;;;;;;5068801;27;43851;-75
2022/10/05 07:18:32;;;;;;;2.40;2.30;;;20.30;67.00;;;;;;5072440;27;43756;-73
2022/10/05 07:21:03;;;;;;;3.03;2.83;;;20.30;67.10;;;;;;5056929;27;43675;-76
2022/10/05 07:23:42;;;;;;;2.60;2.50;;;20.30;67.60;;;;;;5077082;27;44729;-75
2022/10/05 07:26:14;;;;;;;2.37;2.27;;;20.30;67.50;;;;;;5083031;27;43743;-75
2022/10/05 07:28:46;;;;;;;2.30;2.10;;;20.30;67.30;;;;;;5083736;27;43969;-74
2022/10/05 07:31:19;;;;;;;2.30;2.20;;;20.20;67.20;;;;;;5075203;28;45719;-72
2022/10/05 07:33:51;;;;;;;2.90;2.70;;;20.20;67.20;;;;;;5081291;27;43377;-74
2022/10/05 07:39:11;;;;;;;2.60;2.50;;;20.30;67.80;;;;;;5079106;27;43544;-75
2022/10/05 07:41:44;;;;;;;2.77;2.67;;;20.40;67.20;;;;;;5082088;27;45730;-73
2022/10/05 07:44:15;;;;;;;2.77;2.67;;;20.50;66.70;;;;;;5074775;27;43458;-73
2022/10/05 07:46:51;;;;;;;2.40;2.30;;;20.70;66.30;;;;;;5067327;28;43463;-74
2022/10/05 07:49:28;;;;;;;2.30;2.20;;;20.70;66.00;;;;;;5078758;27;43497;-74
2022/10/05 07:51:56;;;;;;;2.43;2.33;;;20.70;66.00;;;;;;5066902;27;43921;-75
2022/10/05 07:54:27;;;;;;;2.60;2.50;;;20.60;66.20;;;;;;5084362;27;44660;-73
2022/10/05 07:57:00;;;;;;;2.70;2.60;;;20.50;66.40;;;;;;5084345;27;43712;-75
2022/10/05 07:59:31;;;;;;;2.50;2.40;;;20.40;66.90;;;;;;5097150;27;43405;-74
2022/10/05 08:02:03;;;;;;;2.50;2.40;;;20.40;67.00;;;;;;5095617;27;44702;-75
2022/10/05 08:04:34;;;;;;;2.50;2.40;;;20.40;66.90;;;;;;5088884;27;44820;-74
2022/10/05 08:07:11;;;;;;;2.60;2.50;;;20.30;66.90;;;;;;5100629;27;44093;-74
2022/10/05 08:09:41;;;;;;;2.27;2.17;;;20.30;67.00;;;;;;5110372;27;43421;-74
2022/10/05 08:12:21;;;;;;;2.43;2.33;;;20.30;67.50;;;;;;5106812;27;43907;-74
2022/10/05 08:14:52;;;;;;;2.13;2.07;;;20.30;67.40;;;;;;5102190;27;43474;-73
2022/10/05 08:17:25;;;;;;;2.30;2.20;;;20.30;67.30;;;;;;5107509;27;43389;-73
2022/10/05 08:19:56;;;;;;;2.50;2.30;;;20.30;67.20;;;;;;5107656;27;43729;-74
2022/10/05 08:22:25;;;;;;;2.37;2.17;;;20.30;67.20;;;;;;5106866;27;44036;-73
2022/10/05 08:24:55;;;;;;;2.00;2.00;;;20.20;67.20;;;;;;5106440;27;43443;-74
2022/10/05 08:27:25;;;;;;;2.53;2.43;;;20.20;67.70;;;;;;5101195;27;43417;-74
2022/10/05 08:29:56;;;;;;;2.67;2.47;;;20.30;67.60;;;;;;5099371;27;43378;-74
2022/10/05 08:32:25;;;;;;;2.63;2.53;;;20.40;67.20;;;;;;5094885;27;45709;-75
2022/10/05 08:34:56;;;;;;;2.40;2.30;;;20.50;66.70;;;;;;5106395;27;43501;-74
2022/10/05 08:37:26;;;;;;;2.20;2.10;;;20.60;66.30;;;;;;5097822;27;43366;-74
2022/10/05 08:39:56;;;;;;;2.40;2.30;;;20.70;66.20;;;;;;5106835;27;43505;-75
2022/10/05 08:42:56;;;;;;;2.43;2.33;;;20.60;66.10;;;;;;5105862;27;43678;-74
2022/10/05 08:45:46;;;;;;;1.93;1.90;;;20.60;66.40;;;;;;5106248;27;43414;-74
2022/10/05 08:48:24;;;;;;;2.10;2.00;;;20.50;66.60;;;;;;5102833;27;43480;-75
2022/10/05 08:51:12;;;;;;;2.13;2.13;;;20.40;67.10;;;;;;5110289;27;43406;-75
2022/10/05 08:54:06;;;;;;;2.10;2.00;;;20.40;67.20;;;;;;5109796;27;43960;-75
2022/10/05 08:56:38;;;;;;;1.90;1.90;;;20.40;67.20;;;;;;5106113;27;43473;-76
2022/10/05 08:59:18;;;;;;;2.40;2.30;;;20.30;67.10;;;;;;5110276;27;43426;-74
2022/10/05 09:01:57;;;;;;;2.20;2.10;;;20.30;67.20;;;;;;5107716;27;43969;-75
2022/10/05 09:04:32;;;;;;;2.20;2.13;;;20.20;67.60;;;;;;5092679;27;44306;-75
2022/10/05 09:07:15;;;;;;;2.33;2.23;;;20.30;67.60;;;;;;5111528;27;43414;-74
2022/10/05 09:10:18;;;;;;;2.27;2.17;;;20.40;67.20;;;;;;5108254;27;43964;-73
2022/10/05 09:13:01;;;;;;;2.00;1.90;;;20.40;66.80;;;;;;5052288;27;43971;-75
2022/10/05 09:15:43;;;;;;;3.43;2.70;;;20.40;66.80;;;;;;5109901;27;43955;-76
2022/10/05 09:18:30;;;;;;;2.90;2.60;;;20.40;66.60;;;;;;5109544;27;43406;-74
2022/10/05 09:20:59;;;;;;;3.03;2.90;;;20.40;65.90;;;;;;5091123;27;43488;-73
2022/10/05 09:23:36;;;;;;;3.87;2.90;;;20.40;66.20;;;;;;5109446;27;43382;-73
2022/10/05 09:26:08;;;;;;;3.77;3.20;;;20.30;66.30;;;;;;5097110;27;45892;-73
2022/10/05 09:28:40;;;;;;;4.43;3.23;;;20.30;66.50;;;;;;5109951;27;43465;-73
2022/10/05 09:31:35;;;;;;;4.43;3.13;;;20.20;66.70;;;;;;5109883;27;43866;-72
2022/10/05 09:34:29;;;;;;;4.83;3.57;;;20.20;66.60;;;;;;5117169;27;44050;-74
2022/10/05 09:37:36;;;;;;;3.07;2.80;;;20.20;66.60;;;;;;5107376;27;43857;-74
2022/10/05 09:40:39;;;;;;;5.23;3.63;;;20.20;66.60;;;;;;5106100;27;43541;-73
2022/10/05 09:43:41;;;;;;;4.90;4.40;;;20.20;66.70;;;;;;5104534;27;43747;-73
2022/10/05 09:46:24;;;;;;;4.87;4.57;;;20.20;67.00;;;;;;5110297;27;43867;-73
2022/10/05 09:49:01;;;;;;;7.10;4.60;;;20.20;66.20;;;;;;5109458;27;43655;-72
2022/10/05 09:51:54;;;;;;;5.33;4.20;;;20.30;66.20;;;;;;5096562;27;44277;-74
2022/10/05 09:55:00;;;;;;;3.90;3.60;;;20.50;66.00;;;;;;5097784;27;43588;-73
2022/10/05 09:58:12;;;;;;;6.87;4.47;;;20.60;65.70;;;;;;5107583;27;43395;-73
2022/10/05 10:00:48;;;;;;;4.23;3.93;;;20.50;65.60;;;;;;5098423;27;43626;-73
2022/10/05 10:04:01;;;;;;;3.57;3.43;;;20.40;65.80;;;;;;5099009;27;44399;-74
2022/10/05 10:38:29;;;;;;;4.97;4.53;;;19.30;68.90;;;;;;5102726;27;43507;-73
2022/10/05 10:41:09;;;;;;;4.50;4.30;;;19.10;70.80;;;;;;5103739;27;43395;-73
2022/10/05 10:44:01;;;;;;;5.37;4.50;;;19.10;70.30;;;;;;5100196;27;44026;-73
2022/10/05 10:46:34;;;;;;;4.67;4.37;;;19.10;70.20;;;;;;5105336;27;43442;-73
2022/10/05 10:49:14;;;;;;;4.93;4.73;;;19.10;70.30;;;;;;5104386;27;43610;-73
2022/10/05 10:51:55;;;;;;;5.10;4.60;;;19.10;70.40;;;;;;5103924;27;43491;-74
2022/10/05 10:54:51;;;;;;;5.20;4.90;;;19.10;70.80;;;;;;5098780;27;43435;-73
2022/10/05 10:57:22;;;;;;;5.67;5.10;;;19.10;70.90;;;;;;5101458;27;43469;-74
2022/10/05 11:00:20;;;;;;;4.57;4.30;;;19.30;70.70;;;;;;5103278;27;43872;-74
2022/10/05 11:03:22;;;;;;;6.03;4.70;;;19.40;70.30;;;;;;5132662;27;45006;-74
2022/10/05 11:06:23;;;;;;;5.27;4.87;;;19.60;69.60;;;;;;5100757;27;44006;-75
2022/10/05 11:09:16;;;;;;;4.70;4.30;;;19.80;68.60;;;;;;5099735;27;43823;-74
2022/10/05 11:12:12;;;;;;;5.33;4.80;;;20.00;68.20;;;;;;5100928;27;43971;-74
2022/10/05 11:14:51;;;;;;;7.43;4.97;;;20.20;67.60;;;;;;5099147;27;43455;-75
2022/10/05 11:17:52;;;;;;;5.30;4.77;;;20.30;67.00;;;;;;5103310;27;43420;-73
2022/10/05 11:20:34;;;;;;;4.70;4.30;;;20.40;66.80;;;;;;5101972;27;43568;-74
2022/10/05 11:23:13;;;;;;;4.87;4.47;;;20.40;66.60;;;;;;5101165;27;43594;-75
2022/10/05 11:26:03;;;;;;;4.77;4.47;;;20.50;66.40;;;;;;5098539;27;43526;-74
2022/10/05 11:28:53;;;;;;;4.70;4.50;;;20.50;66.20;;;;;;5101097;27;43444;-75
2022/10/05 11:31:37;;;;;;;4.90;4.50;;;20.50;66.40;;;;;;5101843;27;43474;-74
2022/10/05 11:34:36;;;;;;;4.77;4.57;;;20.30;66.70;;;;;;5099594;27;43737;-75
2022/10/05 11:37:33;;;;;;;5.27;5.03;;;20.20;67.40;;;;;;5126756;27;44609;-74
2022/10/05 11:40:43;;;;;;;4.33;4.13;;;20.10;67.60;;;;;;5087594;28;43447;-76
2022/10/05 11:43:25;;;;;;;4.87;4.57;;;20.00;67.90;;;;;;5086973;28;43362;-76
2022/10/05 11:45:58;;;;;;;4.80;4.50;;;19.80;68.30;;;;;;5088380;28;43767;-74
2022/10/05 11:48:42;;;;;;;4.73;4.33;;;19.70;68.80;;;;;;5080460;28;44759;-74
2022/10/05 11:51:23;;;;;;;5.03;4.73;;;19.70;69.10;;;;;;5084142;27;43499;-74
2022/10/05 11:54:02;;;;;;;4.50;4.20;;;19.60;69.20;;;;;;5119988;27;43796;-74
2022/10/05 11:56:31;;;;;;;4.37;4.17;;;19.60;70.20;;;;;;5088574;27;44433;-75
2022/10/05 11:59:01;;;;;;;4.37;4.23;;;19.50;69.60;;;;;;5088707;27;43807;-73
2022/10/05 12:01:33;;;;;;;4.20;4.00;;;19.50;69.90;;;;;;5086720;28;43426;-74
2022/10/05 12:04:06;;;;;;;4.70;4.50;;;19.50;69.80;;;;;;5083914;27;43524;-75
2022/10/05 12:06:42;;;;;;;4.83;4.47;;;19.60;69.40;;;;;;5082194;28;43590;-73
2022/10/05 12:09:19;;;;;;;4.73;4.53;;;19.70;69.00;;;;;;5087002;28;44672;-74
2022/10/05 12:11:54;;;;;;;4.50;4.27;;;19.80;68.50;;;;;;5088688;27;43397;-73
2022/10/05 12:14:31;;;;;;;4.40;4.20;;;19.80;68.50;;;;;;5088954;28;43451;-73
2022/10/05 12:17:01;;;;;;;4.20;3.90;;;19.70;68.70;;;;;;5088625;27;43748;-75
2022/10/05 12:19:33;;;;;;;3.50;3.40;;;19.70;69.10;;;;;;5086528;28;43941;-75
2022/10/05 12:22:03;;;;;;;4.10;3.90;;;19.60;69.30;;;;;;5088013;28;44047;-73
2022/10/05 12:24:46;;;;;;;4.20;4.00;;;19.50;69.40;;;;;;5088660;27;43470;-74
2022/10/05 12:27:16;;;;;;;3.63;3.53;;;19.50;69.70;;;;;;5103757;27;44738;-76
2022/10/05 12:29:46;;;;;;;3.90;3.80;;;19.50;69.80;;;;;;5088073;28;43427;-74
2022/10/05 12:32:16;;;;;;;3.67;3.57;;;19.40;69.80;;;;;;5088215;27;43421;-74
2022/10/05 12:34:49;;;;;;;3.50;3.30;;;19.40;69.90;;;;;;5088732;27;43449;-72
2022/10/05 12:37:32;;;;;;;3.47;3.27;;;19.40;70.00;;;;;;5087588;27;43592;-73
2022/10/05 12:40:02;;;;;;;3.93;3.73;;;19.40;69.80;;;;;;5088393;27;43992;-73
2022/10/05 12:42:32;;;;;;;3.30;3.20;;;19.50;69.80;;;;;;5087613;28;43461;-73
2022/10/05 12:45:13;;;;;;;4.03;3.87;;;19.50;69.80;;;;;;5089008;28;43931;-74
2022/10/05 12:47:49;;;;;;;3.17;3.07;;;19.40;69.80;;;;;;5088035;27;43831;-73
2022/10/05 12:50:23;;;;;;;4.17;3.87;;;19.40;69.90;;;;;;5086507;27;45011;-72
2022/10/05 12:53:08;;;;;;;3.77;3.47;;;19.40;70.10;;;;;;5082894;28;44021;-74
2022/10/05 12:55:40;;;;;;;3.20;3.10;;;19.40;70.10;;;;;;5089192;27;43481;-74
2022/10/05 12:58:16;;;;;;;3.27;3.17;;;19.40;70.10;;;;;;5084403;28;45758;-75
2022/10/05 13:00:48;;;;;;;3.60;3.40;;;19.40;70.30;;;;;;5087316;28;43393;-73
2022/10/05 13:03:17;;;;;;;4.07;3.60;;;19.30;70.50;;;;;;5080357;28;43442;-73
2022/10/05 13:05:50;;;;;;;3.67;3.47;;;19.40;70.50;;;;;;5088485;27;43391;-74
2022/10/05 13:08:21;;;;;;;3.50;3.40;;;19.50;70.40;;;;;;5087479;27;43606;-74
2022/10/05 13:10:49;;;;;;;3.60;3.40;;;19.50;70.10;;;;;;5087326;27;43900;-74
2022/10/05 13:13:41;;;;;;;3.50;3.20;;;19.50;70.00;;;;;;5087414;27;43398;-73
2022/10/05 13:16:14;;;;;;;4.43;4.03;;;19.50;70.20;;;;;;5086215;28;43441;-74
2022/10/05 13:18:53;;;;;;;3.50;3.30;;;19.50;70.20;;;;;;5087091;27;43622;-74
2022/10/05 13:21:26;;;;;;;3.70;3.50;;;19.50;70.30;;;;;;5081031;28;43388;-74
2022/10/05 13:23:58;;;;;;;3.40;3.23;;;19.40;70.30;;;;;;5083960;28;43484;-74
2022/10/05 13:26:27;;;;;;;3.70;3.20;;;19.40;70.40;;;;;;5088044;27;43442;-73
2022/10/05 13:28:57;;;;;;;3.20;3.10;;;19.40;70.50;;;;;;5085479;28;46242;-74
2022/10/05 13:31:27;;;;;;;3.10;3.00;;;19.40;70.80;;;;;;5082522;28;43448;-73
2022/10/05 13:34:02;;;;;;;3.60;3.33;;;19.40;70.80;;;;;;5085200;28;43521;-73
2022/10/05 13:36:38;;;;;;;3.50;3.30;;;19.40;70.80;;;;;;5085786;28;43430;-73
2022/10/05 13:39:13;;;;;;;2.97;2.80;;;19.40;70.90;;;;;;5087576;27;43692;-73
2022/10/05 13:41:50;;;;;;;2.80;2.60;;;19.30;70.90;;;;;;5085605;28;44659;-73
2022/10/05 13:44:21;;;;;;;3.10;2.90;;;19.30;71.30;;;;;;5085202;28;44096;-74
2022/10/05 13:46:49;;;;;;;2.97;2.80;;;19.40;71.10;;;;;;5085999;28;43406;-72
2022/10/05 13:49:21;;;;;;;2.90;2.70;;;19.50;70.80;;;;;;5080564;28;43878;-72
2022/10/05 13:51:56;;;;;;;3.23;3.03;;;19.60;70.40;;;;;;5086677;27;43423;-73
2022/10/05 13:54:29;;;;;;;3.07;2.93;;;19.70;70.00;;;;;;5086770;27;43423;-74
2022/10/05 13:56:58;;;;;;;2.90;2.80;;;19.70;69.80;;;;;;5085988;28;44213;-73
2022/10/05 13:59:29;;;;;;;2.40;2.30;;;19.70;69.90;;;;;;5086795;27;43583;-73
2022/10/05 14:01:58;;;;;;;2.70;2.60;;;19.60;70.00;;;;;;5086392;27;43399;-73
2022/10/05 14:04:28;;;;;;;2.80;2.70;;;19.60;70.30;;;;;;5086789;28;43435;-73
2022/10/05 14:06:57;;;;;;;2.90;2.80;;;19.50;70.70;;;;;;5085614;28;43536;-72
2022/10/05 14:09:29;;;;;;;2.37;2.30;;;19.50;70.60;;;;;;5085331;28;45886;-72